Time;durP1;ratioP1;P1;durP2;ratioP2;P2;SDS_P1;SDS_P2;PMS_P1;PMS_P2;Temp;Humidity;BMP_temperature;BMP_pressure;BME280_temperature;BME280_humidity;BME280_pressure;Samples;Min_cycle;Max_cycle;Signal;HPM_P1;HPM_P2
2021/12/15 00:01:46;;;;;;;61.50;22.93;;;;;;;6.54;71.36;101255.36;1854529;76;21094;-63
2021/12/15 00:04:15;;;;;;;54.45;22.45;;;;;;;6.55;71.47;101251.02;1858193;76;21034;-62
2021/12/15 00:06:44;;;;;;;49.70;20.00;;;;;;;6.54;71.73;101251.44;1854569;76;21547;-63
2021/12/15 00:09:14;;;;;;;49.80;22.35;;;;;;;6.55;71.73;101255.80;1855104;76;21451;-61
2021/12/15 00:11:45;;;;;;;52.90;21.60;;;;;;;6.57;71.69;101254.47;1854576;76;21017;-67
2021/12/15 00:14:17;;;;;;;51.90;23.57;;;;;;;6.57;71.61;101262.32;1859170;76;21033;-62
2021/12/15 00:16:47;;;;;;;50.50;22.95;;;;;;;6.54;71.71;101247.52;1869869;76;21448;-64
2021/12/15 00:19:16;;;;;;;59.50;22.30;;;;;;;6.51;71.97;101256.73;1853796;77;20997;-65
2021/12/15 00:21:45;;;;;;;53.33;24.63;;;;;;;6.54;72.03;101250.13;1859340;76;21141;-62
2021/12/15 00:24:15;;;;;;;52.15;22.40;;;;;;;6.55;72.12;101259.72;1876054;76;21032;-63
2021/12/15 00:26:44;;;;;;;47.65;24.30;;;;;;;6.55;72.12;101257.55;1854506;76;21001;-62
2021/12/15 00:29:12;;;;;;;66.15;25.15;;;;;;;6.53;72.10;101256.27;1855028;76;21004;-63
2021/12/15 00:31:42;;;;;;;61.25;27.40;;;;;;;6.51;72.17;101251.50;1854698;76;21033;-63
2021/12/15 00:34:11;;;;;;;55.15;25.65;;;;;;;6.46;72.24;101235.00;1853059;76;21597;-63
2021/12/15 00:36:44;;;;;;;54.40;24.35;;;;;;;6.46;72.17;101235.00;1860246;76;21044;-62
2021/12/15 00:39:12;;;;;;;57.35;24.80;;;;;;;6.46;72.14;101235.00;1854118;77;21036;-61
2021/12/15 00:41:42;;;;;;;59.80;25.52;;;;;;;6.45;72.27;101241.09;1857664;76;21143;-61
2021/12/15 00:44:11;;;;;;;63.63;25.70;;;;;;;6.43;72.35;101228.48;1857772;76;21168;-61
2021/12/15 00:46:41;;;;;;;65.30;27.73;;;;;;;6.44;72.28;101232.85;1856610;76;20993;-61
2021/12/15 00:49:12;;;;;;;63.45;25.75;;;;;;;6.43;72.26;101225.02;1854939;76;21489;-62
2021/12/15 00:51:42;;;;;;;62.85;27.20;;;;;;;6.44;72.26;101230.23;1853609;77;21123;-61
2021/12/15 00:54:12;;;;;;;65.57;27.85;;;;;;;6.44;72.26;101222.38;1853660;76;21180;-63
2021/12/15 00:56:41;;;;;;;62.65;27.35;;;;;;;6.45;72.30;101229.33;1884171;74;21488;-62
2021/12/15 00:59:11;;;;;;;94.05;29.05;;;;;;;6.45;72.32;101226.71;1824070;79;21456;-61
2021/12/15 01:01:41;;;;;;;63.15;26.85;;;;;;;6.40;72.38;101219.40;1847524;76;21069;-61
2021/12/15 01:04:13;;;;;;;69.90;27.93;;;;;;;6.37;72.29;101212.89;1887084;76;21538;-61
2021/12/15 01:06:44;;;;;;;59.15;27.45;;;;;;;6.36;72.33;101215.07;1824303;79;21467;-62
2021/12/15 01:09:18;;;;;;;66.87;26.42;;;;;;;6.34;72.37;101211.62;1827094;77;21172;-62
2021/12/15 01:19:57;;;;;;;64.95;28.77;;;;;;;6.17;72.69;101214.02;1872040;77;21054;-65
2021/12/15 01:22:31;;;;;;;62.10;26.55;;;;;;;6.16;72.78;101212.30;1872205;77;21074;-65
2021/12/15 01:25:03;;;;;;;67.70;28.12;;;;;;;6.13;72.89;101216.70;1872212;77;21051;-61
2021/12/15 01:27:32;;;;;;;60.23;26.65;;;;;;;6.12;73.00;101217.16;1871998;76;21512;-61
2021/12/15 01:30:00;;;;;;;70.90;28.20;;;;;;;6.12;73.12;101209.73;1873977;76;21146;-62
2021/12/15 01:32:30;;;;;;;62.88;27.02;;;;;;;6.11;73.12;101198.42;1873884;76;21506;-60
2021/12/15 01:34:58;;;;;;;63.30;27.30;;;;;;;6.12;73.11;101197.55;1873994;76;21455;-61
2021/12/15 01:37:28;;;;;;;67.40;27.27;;;;;;;6.12;73.18;101193.63;1873685;76;21040;-62
2021/12/15 01:39:57;;;;;;;61.25;26.48;;;;;;;6.11;73.34;101191.03;1864416;76;21472;-61
2021/12/15 01:42:29;;;;;;;62.27;26.80;;;;;;;6.10;73.44;101187.52;1841159;78;21468;-61
2021/12/15 01:47:46;;;;;;;60.78;26.23;;;;;;;6.08;73.74;101185.83;1866697;77;21063;-60
2021/12/15 01:50:17;;;;;;;67.40;27.37;;;;;;;6.07;73.68;101187.59;1866740;77;21117;-62
2021/12/15 01:52:47;;;;;;;67.25;27.20;;;;;;;6.08;73.56;101199.75;1870876;77;21051;-60
2021/12/15 01:55:19;;;;;;;62.85;25.97;;;;;;;6.08;73.57;101201.52;1867180;76;21478;-61
2021/12/15 01:57:49;;;;;;;69.37;25.90;;;;;;;6.01;73.76;101190.70;1873897;76;21136;-60
2021/12/15 02:00:24;;;;;;;66.97;27.65;;;;;;;6.02;73.75;101188.53;1874017;76;21043;-63
2021/12/15 02:02:54;;;;;;;64.72;25.92;;;;;;;6.02;73.76;101188.08;1874073;76;21078;-60
2021/12/15 02:05:24;;;;;;;62.62;27.00;;;;;;;6.03;73.78;101195.05;1874000;76;21042;-60
2021/12/15 02:07:54;;;;;;;77.20;29.92;;;;;;;6.04;73.72;101191.53;1873965;76;21125;-63
2021/12/15 02:10:26;;;;;;;67.00;27.17;;;;;;;6.03;73.81;101191.13;1874154;76;21038;-61
2021/12/15 02:12:55;;;;;;;73.22;29.50;;;;;;;6.01;73.70;101191.56;1874026;76;21046;-63
2021/12/15 02:15:29;;;;;;;62.17;25.00;;;;;;;6.00;73.70;101195.08;1873999;76;21477;-61
2021/12/15 02:18:00;;;;;;;69.42;27.93;;;;;;;5.99;73.59;101195.95;1874097;76;21039;-61
2021/12/15 02:20:31;;;;;;;74.12;29.65;;;;;;;5.97;73.77;101199.03;1873952;76;21164;-63
2021/12/15 02:23:01;;;;;;;59.35;27.02;;;;;;;5.93;73.97;101203.84;1873075;76;21149;-62
2021/12/15 02:25:31;;;;;;;66.82;29.18;;;;;;;5.91;74.03;101201.70;1874096;76;21038;-60
2021/12/15 02:28:02;;;;;;;65.20;27.65;;;;;;;5.89;74.02;101211.31;1873919;76;21458;-59
2021/12/15 02:30:47;;;;;;;67.10;29.07;;;;;;;5.86;74.10;101209.58;1873996;76;21129;-59
2021/12/15 02:34:06;;;;;;;66.35;27.27;;;;;;;5.87;74.06;101213.08;1855587;76;21103;-60
2021/12/15 02:38:32;;;;;;;70.55;28.92;;;;;;;5.84;74.28;101228.79;1841138;78;21049;-60
2021/12/15 02:41:08;;;;;;;65.63;26.40;;;;;;;5.84;74.46;101229.64;1841330;77;21058;-63
2021/12/15 02:43:31;;;;;;;64.87;25.60;;;;;;;5.85;74.56;101223.55;1843283;77;21015;-60
2021/12/15 02:46:00;;;;;;;56.13;25.43;;;;;;;5.88;74.60;101220.02;1897455;76;21554;-60
2021/12/15 02:48:29;;;;;;;59.35;26.20;;;;;;;5.89;74.58;101213.48;1897367;76;21126;-59
2021/12/15 02:50:59;;;;;;;69.12;27.40;;;;;;;5.90;74.59;101216.95;1897404;76;21042;-62
2021/12/15 02:56:16;;;;;;;68.17;26.87;;;;;;;5.87;74.58;101224.84;1893814;76;21135;-62
2021/12/15 02:58:56;;;;;;;71.70;27.30;;;;;;;5.87;74.41;101230.07;1909249;75;21026;-62
2021/12/15 03:01:28;;;;;;;64.67;25.30;;;;;;;5.85;74.36;101234.00;1909235;75;21063;-62
2021/12/15 03:06:35;;;;;;;60.50;24.12;;;;;;;5.82;74.31;101219.66;1909138;75;21010;-60
2021/12/15 03:15:14;;;;;;;64.77;26.57;;;;;;;5.82;74.28;101218.80;1909097;75;21014;-60
2021/12/15 03:17:14;;;;;;;68.17;28.12;;;;;;;5.77;74.31;101215.80;1909389;75;21014;-59
2021/12/15 03:19:43;;;;;;;65.20;29.07;;;;;;;5.75;74.41;101213.63;1909296;75;21022;-59
2021/12/15 03:22:11;;;;;;;64.55;28.57;;;;;;;5.72;74.58;101207.59;1909166;75;21104;-59
2021/12/15 03:24:40;;;;;;;62.10;27.98;;;;;;;5.71;74.66;101208.47;1909276;75;21081;-59
2021/12/15 03:27:15;;;;;;;61.55;28.05;;;;;;;5.68;74.78;101206.77;1909236;75;21030;-62
2021/12/15 03:37:50;;;;;;;;;;;;;;;5.56;74.93;101225.17;1926759;74;21127;-61
2021/12/15 03:40:24;;;;;;;67.12;27.93;;;;;;;5.59;74.67;101228.62;1926454;74;20106;-59
2021/12/15 03:42:58;;;;;;;66.47;26.40;;;;;;;5.57;74.54;101228.20;1927256;74;21014;-61
2021/12/15 03:45:37;;;;;;;68.55;27.55;;;;;;;5.56;74.38;101217.34;1927143;74;21472;-60
2021/12/15 03:48:09;;;;;;;65.28;28.30;;;;;;;5.53;74.38;101220.86;1926682;74;21140;-61
2021/12/15 03:50:38;;;;;;;59.15;26.02;;;;;;;5.51;74.64;101229.58;1927225;74;21563;-58
2021/12/15 03:53:07;;;;;;;68.47;26.60;;;;;;;5.51;74.63;101229.58;1927110;74;21010;-59
2021/12/15 03:55:38;;;;;;;50.17;23.32;;;;;;;5.50;74.55;101237.00;1902731;74;21070;-59
2021/12/15 03:58:11;;;;;;;58.17;24.37;;;;;;;5.49;74.43;101233.95;1881283;76;21011;-58
2021/12/15 04:00:42;;;;;;;61.98;25.88;;;;;;;5.46;74.47;101230.94;1881534;76;21128;-61
2021/12/15 04:03:23;;;;;;;46.98;20.72;;;;;;;5.44;74.65;101235.32;1881522;76;21136;-62
2021/12/15 04:05:53;;;;;;;165.77;57.15;;;;;;;5.43;74.83;101228.80;1881335;76;21129;-62
2021/12/15 04:08:22;;;;;;;43.45;19.37;;;;;;;5.40;74.91;101225.34;1881387;76;21120;-61
2021/12/15 04:10:51;;;;;;;46.90;19.27;;;;;;;5.41;74.84;101222.28;1881165;76;21505;-59
2021/12/15 04:13:20;;;;;;;50.50;21.20;;;;;;;5.39;74.87;101231.43;1881292;76;21493;-59
2021/12/15 04:16:04;;;;;;;49.05;19.57;;;;;;;5.39;74.89;101231.43;1881383;76;21059;-61
2021/12/15 04:21:16;;;;;;;40.92;17.95;;;;;;;5.40;74.89;101216.63;1954848;73;21022;-61
2021/12/15 04:23:53;;;;;;;44.95;18.27;;;;;;;5.39;74.95;101227.97;1955189;73;21014;-61
2021/12/15 04:26:22;;;;;;;34.05;17.12;;;;;;;5.36;75.18;101230.14;1940755;73;20990;-65
2021/12/15 04:28:51;;;;;;;42.27;18.37;;;;;;;5.39;75.30;101230.13;1954804;73;21162;-60
2021/12/15 04:31:23;;;;;;;39.80;17.45;;;;;;;5.45;75.20;101227.03;1935936;73;21014;-60
2021/12/15 04:33:55;;;;;;;40.40;18.35;;;;;;;5.48;75.20;101235.70;1941861;73;21059;-60
2021/12/15 04:36:27;;;;;;;46.35;20.62;;;;;;;5.51;75.02;101226.97;1920853;74;21023;-61
2021/12/15 04:38:58;;;;;;;44.03;18.77;;;;;;;5.50;74.99;101242.23;1930462;74;21015;-59
2021/12/15 04:41:28;;;;;;;42.90;18.70;;;;;;;5.49;75.00;101224.81;1936325;73;21002;-66
2021/12/15 04:43:59;;;;;;;41.50;19.17;;;;;;;5.49;75.00;101239.17;1938206;73;21527;-71
2021/12/15 04:46:30;;;;;;;47.10;18.87;;;;;;;5.46;75.07;101232.25;1925896;73;21110;-61
2021/12/15 04:48:59;;;;;;;43.35;19.25;;;;;;;5.43;75.12;101239.25;1937727;73;21124;-62
2021/12/15 04:51:30;;;;;;;39.05;19.23;;;;;;;5.33;75.31;101227.59;1954948;73;20979;-60
2021/12/15 04:53:59;;;;;;;48.65;18.55;;;;;;;5.34;75.28;101225.38;1946926;73;21095;-60
2021/12/15 04:56:28;;;;;;;49.40;20.95;;;;;;;5.34;75.14;101227.99;1952386;73;21439;-62
2021/12/15 04:58:58;;;;;;;43.05;20.32;;;;;;;5.34;75.06;101222.77;1920804;75;21529;-60
2021/12/15 05:01:27;;;;;;;43.35;20.12;;;;;;;5.35;74.99;101221.91;1922751;73;21085;-62
2021/12/15 05:03:56;;;;;;;45.60;19.42;;;;;;;5.37;74.90;101234.95;1955047;73;21095;-61
2021/12/15 05:06:25;;;;;;;47.25;21.20;;;;;;;5.35;74.79;101223.21;1942250;73;21125;-64
2021/12/15 05:08:55;;;;;;;50.92;22.42;;;;;;;5.37;74.78;101215.37;1945784;73;21130;-62
2021/12/15 05:11:24;;;;;;;56.98;21.97;;;;;;;5.40;74.78;101208.78;1945884;73;21002;-65
2021/12/15 05:13:53;;;;;;;46.20;20.10;;;;;;;5.43;74.77;101202.69;1955098;73;21014;-64
2021/12/15 05:16:21;;;;;;;46.85;22.42;;;;;;;5.44;74.78;101213.13;1954803;73;20982;-59
2021/12/15 05:18:50;;;;;;;52.08;22.40;;;;;;;5.43;74.81;101217.05;1953047;73;21010;-62
2021/12/15 05:21:22;;;;;;;59.10;23.50;;;;;;;5.45;74.91;101221.81;1931284;73;21085;-60
2021/12/15 05:23:55;;;;;;;50.48;20.60;;;;;;;5.48;74.94;101219.15;1955011;73;21073;-61
2021/12/15 05:26:20;;;;;;;50.05;21.52;;;;;;;5.53;74.85;101216.05;1954162;73;21014;-62
2021/12/15 05:28:51;;;;;;;49.98;19.95;;;;;;;5.59;74.72;101208.17;1955085;73;21135;-63
2021/12/15 05:31:20;;;;;;;51.63;21.48;;;;;;;5.65;74.62;101222.91;1946696;73;21066;-61
2021/12/15 05:33:49;;;;;;;43.40;19.32;;;;;;;5.67;74.54;101208.94;1920915;75;20982;-63
2021/12/15 05:36:17;;;;;;;47.23;19.70;;;;;;;5.67;74.47;101222.00;1921034;73;20988;-60
2021/12/15 05:38:47;;;;;;;50.85;20.65;;;;;;;5.65;74.44;101234.22;1920862;75;21040;-62
2021/12/15 05:41:15;;;;;;;41.65;18.02;;;;;;;5.64;74.49;101227.25;1920949;73;21023;-60
2021/12/15 05:43:44;;;;;;;45.15;20.20;;;;;;;5.65;74.47;101239.45;1954943;73;21015;-59
2021/12/15 05:46:13;;;;;;;46.45;21.23;;;;;;;5.67;74.44;101238.13;1951835;73;21025;-59
2021/12/15 05:48:42;;;;;;;51.55;22.32;;;;;;;5.68;74.39;101238.13;1920719;75;21572;-60
2021/12/15 05:51:11;;;;;;;60.95;24.55;;;;;;;5.70;74.37;101227.63;1921052;73;21031;-61
2021/12/15 05:53:40;;;;;;;48.42;19.60;;;;;;;5.70;74.38;101229.82;1954986;73;21448;-60
2021/12/15 05:56:09;;;;;;;44.88;19.75;;;;;;;5.72;74.38;101235.03;1953686;73;21022;-60
2021/12/15 05:58:38;;;;;;;47.83;20.02;;;;;;;5.71;74.42;101244.59;1920958;74;21415;-60
2021/12/15 06:01:07;;;;;;;42.83;17.62;;;;;;;5.72;74.44;101244.18;1920927;75;21004;-60
2021/12/15 06:03:36;;;;;;;48.90;21.40;;;;;;;5.69;74.40;101245.06;1920750;75;21734;-59
2021/12/15 06:06:05;;;;;;;79.77;30.70;;;;;;;5.70;74.36;101243.30;1921120;73;21018;-61
2021/12/15 06:08:33;;;;;;;66.90;27.62;;;;;;;5.71;74.35;101230.22;1955079;73;21080;-62
2021/12/15 06:11:05;;;;;;;54.77;25.08;;;;;;;5.75;74.32;101221.91;1954421;73;21132;-61
2021/12/15 06:13:34;;;;;;;55.63;22.80;;;;;;;5.75;74.39;101235.83;1955084;73;21007;-60
2021/12/15 06:16:05;;;;;;;73.62;25.70;;;;;;;5.81;74.35;101246.69;1954900;73;21061;-60
2021/12/15 06:18:34;;;;;;;75.55;28.55;;;;;;;5.82;74.32;101255.39;1922914;73;20980;-60
2021/12/15 06:21:03;;;;;;;93.12;30.55;;;;;;;5.87;74.28;101250.98;1937374;72;21629;-59
2021/12/15 06:23:32;;;;;;;91.67;27.77;;;;;;;5.89;74.24;101253.98;1961932;73;21023;-61
2021/12/15 06:26:04;;;;;;;76.50;27.75;;;;;;;5.93;74.18;101257.44;1962123;72;21035;-62
2021/12/15 06:28:33;;;;;;;77.75;27.87;;;;;;;5.95;74.10;101242.17;1997172;72;21010;-62
2021/12/15 06:31:06;;;;;;;59.70;24.00;;;;;;;5.97;74.11;101244.33;1995171;72;21507;-62
2021/12/15 06:33:38;;;;;;;67.70;24.75;;;;;;;6.01;74.19;101239.92;1965176;72;21030;-63
2021/12/15 06:36:07;;;;;;;57.45;22.60;;;;;;;6.12;74.00;101236.77;1962031;73;21442;-62
2021/12/15 06:38:39;;;;;;;71.25;26.20;;;;;;;6.23;73.79;101235.75;1961924;73;21433;-61
2021/12/15 06:41:11;;;;;;;68.50;24.95;;;;;;;6.32;73.62;101234.31;1964620;72;21461;-60
2021/12/15 06:43:45;;;;;;;72.42;25.25;;;;;;;6.40;73.48;101246.86;1982498;72;21103;-61
2021/12/15 06:58:10;;;;;;;60.92;25.55;;;;;;;6.56;73.22;101257.51;1978882;72;20997;-60
2021/12/15 07:00:05;;;;;;;73.33;26.87;;;;;;;6.54;73.15;101255.36;1973679;72;21001;-60
2021/12/15 07:02:34;;;;;;;58.23;22.30;;;;;;;6.51;73.20;101260.66;1969546;71;21076;-61
2021/12/15 07:05:03;;;;;;;65.20;25.43;;;;;;;6.51;73.24;101258.05;1961912;73;21457;-61
2021/12/15 07:07:32;;;;;;;63.52;26.12;;;;;;;6.45;73.28;101265.95;1974780;72;21005;-61
2021/12/15 07:10:00;;;;;;;54.05;23.67;;;;;;;6.43;73.48;101266.88;1982367;72;21047;-61
2021/12/15 07:12:29;;;;;;;61.90;23.47;;;;;;;6.41;73.59;101269.50;1979155;72;21103;-60
2021/12/15 07:14:59;;;;;;;68.20;26.82;;;;;;;6.52;73.58;101270.22;1978100;72;21484;-61
2021/12/15 07:17:29;;;;;;;70.57;26.65;;;;;;;6.66;73.43;101279.62;1980961;72;21088;-62
2021/12/15 07:22:37;;;;;;;46.13;19.37;;;;;;;6.86;73.19;101272.38;1981024;72;21101;-62
2021/12/15 07:25:05;;;;;;;51.00;22.02;;;;;;;6.90;73.01;101280.59;1955128;73;21105;-62
2021/12/15 07:27:34;;;;;;;57.78;25.25;;;;;;;6.88;72.96;101280.17;1912526;75;21107;-62
2021/12/15 07:30:04;;;;;;;58.35;25.90;;;;;;;6.90;73.09;101275.36;1958383;73;21010;-63
2021/12/15 07:32:33;;;;;;;60.28;24.75;;;;;;;7.02;73.06;101278.21;1944760;72;21013;-63
2021/12/15 07:35:03;;;;;;;46.83;23.22;;;;;;;7.10;73.09;101285.94;1932923;74;21084;-61
2021/12/15 07:37:37;;;;;;;48.30;22.75;;;;;;;7.15;73.23;101289.36;1933364;73;21446;-62
2021/12/15 07:40:05;;;;;;;55.43;22.65;;;;;;;7.28;73.05;101290.88;1931838;74;21000;-63
2021/12/15 07:42:41;;;;;;;57.55;22.32;;;;;;;7.44;72.75;101291.50;1952729;73;21033;-58
2021/12/15 07:45:05;;;;;;;46.50;21.70;;;;;;;7.58;72.34;101293.89;1966614;73;21018;-58
2021/12/15 07:47:35;;;;;;;47.20;20.55;;;;;;;7.74;72.11;101295.77;1947754;73;21096;-58
2021/12/15 07:50:06;;;;;;;53.95;20.70;;;;;;;7.82;71.80;101294.31;1933193;74;21473;-58
2021/12/15 07:52:34;;;;;;;54.27;21.30;;;;;;;7.84;71.60;101300.39;1951630;73;21075;-57
2021/12/15 07:55:04;;;;;;;61.10;23.60;;;;;;;7.81;71.53;101292.61;1967695;73;21010;-61
2021/12/15 07:57:33;;;;;;;41.05;19.87;;;;;;;7.77;71.57;101283.08;1947856;73;21009;-60
2021/12/15 08:00:02;;;;;;;66.92;26.33;;;;;;;7.78;71.61;101288.72;1933024;74;21004;-62
2021/12/15 08:02:32;;;;;;;59.73;25.43;;;;;;;7.77;71.62;101287.01;1956013;73;21148;-61
2021/12/15 08:05:01;;;;;;;67.62;23.65;;;;;;;7.77;71.71;101293.56;1967548;73;21072;-61
2021/12/15 08:07:30;;;;;;;56.25;22.77;;;;;;;7.70;71.80;101285.79;1948620;73;21446;-59
2021/12/15 08:09:59;;;;;;;44.25;20.05;;;;;;;7.67;71.86;101278.00;1933036;74;21359;-60
2021/12/15 08:12:28;;;;;;;51.68;22.27;;;;;;;7.61;71.95;101279.86;1953630;73;21084;-60
2021/12/15 08:14:57;;;;;;;45.60;22.02;;;;;;;7.56;72.01;101274.69;1967550;73;21017;-60
2021/12/15 08:17:26;;;;;;;46.00;22.45;;;;;;;7.50;72.21;101285.29;1949215;73;21492;-60
2021/12/15 08:19:55;;;;;;;52.23;23.75;;;;;;;7.52;72.27;101276.95;1932880;74;21037;-60
2021/12/15 08:22:23;;;;;;;50.67;21.37;;;;;;;7.53;72.22;101269.52;1928459;73;21067;-61
2021/12/15 08:24:52;;;;;;;49.75;20.48;;;;;;;7.51;72.17;101267.37;1920378;73;21427;-61
2021/12/15 08:27:21;;;;;;;35.68;16.62;;;;;;;7.47;72.18;101263.95;1940002;73;21081;-60
2021/12/15 08:29:50;;;;;;;38.85;19.07;;;;;;;7.45;72.14;101267.05;1954706;72;21014;-61
2021/12/15 08:32:19;;;;;;;39.50;18.10;;;;;;;7.40;72.19;101268.02;1933276;73;21026;-60
2021/12/15 08:34:47;;;;;;;41.75;17.62;;;;;;;7.37;72.31;101264.98;1920508;75;21154;-60
2021/12/15 08:37:16;;;;;;;42.27;18.95;;;;;;;7.39;72.36;101267.58;1920957;73;21020;-58
2021/12/15 08:39:47;;;;;;;38.48;18.00;;;;;;;7.37;72.36;101273.30;1920377;75;21028;-60
2021/12/15 08:42:16;;;;;;;40.40;17.70;;;;;;;7.32;72.45;101269.01;1935900;73;20978;-61
2021/12/15 08:44:46;;;;;;;41.10;18.00;;;;;;;7.30;72.53;101261.63;1954680;73;21083;-59
2021/12/15 08:47:15;;;;;;;27.65;14.87;;;;;;;7.29;72.55;101262.50;1940172;73;20984;-61
2021/12/15 08:49:44;;;;;;;36.13;16.10;;;;;;;7.31;72.61;101263.34;1920472;75;21051;-60
2021/12/15 08:52:13;;;;;;;36.23;15.40;;;;;;;7.27;72.68;101249.88;1939374;73;21041;-61
2021/12/15 08:54:42;;;;;;;31.35;13.15;;;;;;;7.31;72.63;101242.38;1954648;73;21453;-61
2021/12/15 08:57:11;;;;;;;34.73;18.17;;;;;;;7.32;72.61;101230.14;1941211;73;20996;-61
2021/12/15 08:59:40;;;;;;;40.83;19.12;;;;;;;7.31;72.53;101238.45;1920490;75;21051;-60
2021/12/15 09:02:09;;;;;;;45.88;20.90;;;;;;;7.32;72.50;101240.19;1933838;73;21487;-60
2021/12/15 09:04:37;;;;;;;27.60;13.08;;;;;;;7.40;72.50;101240.51;1954603;72;20994;-60
2021/12/15 09:07:06;;;;;;;38.00;16.97;;;;;;;7.51;72.42;101239.86;1942536;73;21071;-60
2021/12/15 09:09:36;;;;;;;36.55;16.35;;;;;;;7.52;72.33;101235.02;1928974;73;21433;-59
2021/12/15 09:12:05;;;;;;;30.77;16.12;;;;;;;7.53;72.30;101240.23;1938105;73;21502;-60
2021/12/15 09:14:35;;;;;;;35.25;14.78;;;;;;;7.55;72.18;101245.45;1954660;72;21116;-61
2021/12/15 09:17:05;;;;;;;36.58;16.97;;;;;;;7.58;72.06;101236.24;1936663;73;21012;-62
2021/12/15 09:19:34;;;;;;;38.30;17.77;;;;;;;7.63;72.03;101233.06;1920453;75;21460;-61
2021/12/15 09:22:05;;;;;;;31.87;14.55;;;;;;;7.66;72.02;101223.84;1920884;73;21051;-60
2021/12/15 09:24:34;;;;;;;31.05;11.83;;;;;;;7.77;71.98;101216.23;1919843;73;21055;-61
2021/12/15 09:27:03;;;;;;;32.05;16.87;;;;;;;7.81;71.95;101213.95;1937875;73;21005;-61
2021/12/15 09:29:33;;;;;;;33.42;15.58;;;;;;;7.82;71.86;101223.53;1953763;73;21045;-63
2021/12/15 09:32:02;;;;;;;29.05;14.40;;;;;;;7.86;71.80;101219.98;1935732;73;21058;-61
2021/12/15 09:34:31;;;;;;;27.42;12.40;;;;;;;7.93;71.67;101216.34;1919852;75;21522;-62
2021/12/15 09:37:02;;;;;;;33.45;13.75;;;;;;;8.08;71.51;101213.39;1920189;73;20996;-64
2021/12/15 09:39:31;;;;;;;29.50;14.05;;;;;;;8.21;71.31;101210.52;1919949;75;21028;-61
2021/12/15 09:42:00;;;;;;;32.33;12.73;;;;;;;8.29;71.10;101207.26;1919809;75;21000;-63
2021/12/15 09:44:29;;;;;;;25.00;10.30;;;;;;;8.32;70.91;101213.77;1946097;73;21099;-60
2021/12/15 10:03:36;;;;;;;21.25;10.23;;;;;;;8.28;70.81;101209.45;1919869;73;21018;-59
2021/12/15 10:19:55;;;;;;;28.05;12.35;;;;;;;8.78;69.44;101198.72;1937915;73;21445;-61
2021/12/15 10:22:43;;;;;;;21.75;11.22;;;;;;;8.70;69.61;101200.22;1945525;73;21441;-63
2021/12/15 10:25:25;;;;;;;24.25;12.30;;;;;;;8.77;69.67;101197.86;1954558;72;21135;-64
2021/12/15 10:27:53;;;;;;;24.98;11.03;;;;;;;8.92;69.55;101204.96;1946785;72;21504;-62
2021/12/15 10:30:40;;;;;;;21.55;10.03;;;;;;;9.14;69.34;101194.31;1923929;73;21537;-61
2021/12/15 10:33:12;;;;;;;21.93;10.55;;;;;;;9.39;68.99;101198.95;1931935;73;21088;-77
2021/12/15 10:35:50;;;;;;;22.17;10.85;;;;;;;9.57;68.52;101193.63;1954583;73;21018;-64
2021/12/15 10:38:22;;;;;;;21.37;10.48;;;;;;;9.74;68.05;101196.66;1953968;73;21042;-67
2021/12/15 10:40:56;;;;;;;20.05;10.48;;;;;;;9.90;67.57;101197.52;1954636;73;20990;-63
2021/12/15 10:43:46;;;;;;;21.45;10.23;;;;;;;9.92;67.21;101197.88;1954725;73;21488;-65
2021/12/15 10:46:23;;;;;;;21.02;10.10;;;;;;;10.09;66.68;101200.47;1929168;73;21096;-64
2021/12/15 10:49:00;;;;;;;28.35;12.03;;;;;;;11.01;64.64;101196.28;1919564;73;21021;-64
2021/12/15 10:51:53;;;;;;;24.85;11.68;;;;;;;12.18;62.13;101193.45;1920508;75;21021;-60
2021/12/15 10:54:27;;;;;;;19.67;10.43;;;;;;;12.50;61.33;101190.86;1920121;74;21050;-59
2021/12/15 10:57:04;;;;;;;22.65;9.90;;;;;;;12.60;61.10;101188.73;1920458;75;21131;-61
2021/12/15 10:59:36;;;;;;;23.18;9.83;;;;;;;12.68;60.43;101180.02;1920475;73;21096;-61
2021/12/15 11:02:17;;;;;;;19.65;9.98;;;;;;;12.29;60.60;101180.69;1920451;75;21026;-59
2021/12/15 11:04:50;;;;;;;30.60;11.45;;;;;;;11.94;61.01;101167.53;1920537;75;21023;-60
2021/12/15 11:07:33;;;;;;;20.45;9.88;;;;;;;11.30;62.13;101170.70;1920420;73;20998;-58
2021/12/15 11:10:05;;;;;;;28.02;9.30;;;;;;;10.72;63.15;101167.83;1918839;73;21186;-59
2021/12/15 11:12:42;;;;;;;21.82;9.33;;;;;;;10.41;63.91;101175.39;1920455;73;21115;-59
2021/12/15 11:15:23;;;;;;;23.60;9.00;;;;;;;10.15;64.57;101183.20;1920270;74;21131;-61
2021/12/15 11:18:01;;;;;;;20.92;10.58;;;;;;;9.88;65.15;101184.41;1918027;74;21001;-60
2021/12/15 11:20:32;;;;;;;20.12;9.50;;;;;;;9.58;65.69;101181.75;1945799;73;20986;-60
2021/12/15 11:23:07;;;;;;;22.15;10.00;;;;;;;9.38;66.02;101181.44;1925497;73;21033;-59
2021/12/15 11:25:51;;;;;;;24.15;9.63;;;;;;;9.31;66.34;101170.68;1919512;73;21511;-60
2021/12/15 11:28:25;;;;;;;26.25;9.10;;;;;;;9.46;66.12;101170.25;1920557;75;21091;-61
2021/12/15 11:30:56;;;;;;;19.48;8.50;;;;;;;9.49;65.86;101167.55;1920347;75;21895;-60
2021/12/15 11:33:34;;;;;;;19.25;9.30;;;;;;;9.46;65.91;101171.56;1920497;75;21460;-60
2021/12/15 11:36:11;;;;;;;27.15;9.35;;;;;;;9.33;65.95;101174.98;1920444;75;21025;-60
2021/12/15 11:41:41;;;;;;;25.20;10.85;;;;;;;8.99;66.30;101181.59;1878127;76;21084;-61
2021/12/15 11:44:13;;;;;;;18.20;8.88;;;;;;;8.86;66.54;101181.88;1873983;76;21103;-60
2021/12/15 11:46:45;;;;;;;20.75;9.20;;;;;;;8.78;66.69;101179.02;1875045;76;21084;-60
2021/12/15 11:49:19;;;;;;;19.95;9.58;;;;;;;8.74;66.76;101184.80;1874293;76;21099;-61
2021/12/15 11:51:57;;;;;;;30.05;12.03;;;;;;;8.70;66.80;101180.53;1865193;76;21171;-61
2021/12/15 11:54:28;;;;;;;26.75;12.78;;;;;;;8.67;66.86;101184.11;1848640;76;21043;-58
2021/12/15 11:57:00;;;;;;;23.12;9.15;;;;;;;8.65;66.89;101179.77;1849652;75;21117;-59
2021/12/15 11:59:31;;;;;;;20.43;8.43;;;;;;;9.14;65.94;101185.58;1842463;76;21146;-60
2021/12/15 12:02:03;;;;;;;21.60;10.00;;;;;;;9.85;64.26;101201.62;1841924;77;21096;-58
2021/12/15 12:04:38;;;;;;;19.02;8.78;;;;;;;10.42;62.73;101195.98;1842277;78;21609;-60
2021/12/15 12:07:24;;;;;;;25.48;9.73;;;;;;;10.80;61.72;101202.67;1841073;78;21125;-59
2021/12/15 12:10:25;;;;;;;22.30;9.38;;;;;;;10.97;60.95;101202.57;1849177;77;21775;-61
2021/12/15 12:13:05;;;;;;;22.73;9.60;;;;;;;11.05;60.57;101206.27;1850637;77;21070;-61
2021/12/15 12:15:30;;;;;;;25.20;9.90;;;;;;;11.00;60.36;101213.02;1850536;77;21058;-61
2021/12/15 12:18:03;;;;;;;28.23;10.55;;;;;;;10.95;60.28;101218.89;1850528;77;21465;-60
2021/12/15 12:20:35;;;;;;;16.90;6.55;;;;;;;10.64;60.77;101214.60;1858419;77;21117;-59
2021/12/15 12:23:07;;;;;;;24.47;9.60;;;;;;;10.13;61.93;101212.66;1862668;76;21081;-60
2021/12/15 12:25:42;;;;;;;28.92;13.18;;;;;;;9.65;62.96;101204.34;1860675;76;21117;-61
2021/12/15 12:28:14;;;;;;;34.05;12.78;;;;;;;9.34;63.75;101210.03;1860555;77;21497;-60
2021/12/15 12:30:49;;;;;;;30.95;12.60;;;;;;;9.11;64.35;101230.31;1860723;77;21043;-60
2021/12/15 12:36:14;;;;;;;29.60;11.18;;;;;;;8.81;65.14;101241.52;1894220;76;21590;-57
2021/12/15 12:38:55;;;;;;;27.70;9.30;;;;;;;8.63;65.49;101240.21;1894213;75;21073;-60
2021/12/15 12:41:26;;;;;;;30.43;11.18;;;;;;;8.48;65.82;101236.17;1894286;76;21111;-62
2021/12/15 12:44:05;;;;;;;28.70;9.05;;;;;;;8.30;66.12;101220.34;1894177;75;21057;-61
2021/12/15 12:46:47;;;;;;;19.75;7.17;;;;;;;8.19;66.35;101223.66;1894234;76;21013;-61
2021/12/15 12:59:24;;;;;;;31.65;9.45;;;;;;;7.64;67.54;101242.67;1891827;75;21029;-62
2021/12/15 13:00:45;;;;;;;25.77;9.53;;;;;;;7.57;67.74;101244.98;1915206;75;21038;-61
2021/12/15 13:03:13;;;;;;;25.15;9.60;;;;;;;7.52;67.80;101233.71;1921226;74;21562;-61
2021/12/15 13:05:54;;;;;;;25.48;9.78;;;;;;;7.46;67.90;101222.05;1921478;75;21082;-61
2021/12/15 13:08:36;;;;;;;20.15;8.43;;;;;;;7.42;68.04;101221.69;1921054;74;21120;-61
2021/12/15 13:11:16;;;;;;;22.85;9.25;;;;;;;7.35;68.11;101233.56;1921344;75;21099;-62